createdAt,value
2018-09-28T00:00:12.513Z,7.31
2018-09-28T00:02:41.539Z,7.28
2018-09-28T00:05:10.696Z,7.27
2018-09-28T00:07:39.824Z,7.24
2018-09-28T00:10:08.942Z,7.24
2018-09-28T00:12:38.040Z,7.23
2018-09-28T00:15:07.468Z,7.21
2018-09-28T00:17:36.511Z,7.20
2018-09-28T00:20:05.906Z,7.15
2018-09-28T00:22:35.080Z,7.11
2018-09-28T00:25:04.392Z,7.04
2018-09-28T00:27:33.385Z,7.03
2018-09-28T00:30:02.639Z,7.02
2018-09-28T00:32:31.633Z,6.95
2018-09-28T00:35:00.664Z,6.93
2018-09-28T00:37:29.565Z,6.94
2018-09-28T00:39:58.797Z,6.94
2018-09-28T00:42:27.819Z,6.89
2018-09-28T00:44:57.202Z,6.86
2018-09-28T00:47:26.313Z,6.83
2018-09-28T00:56:40.021Z,6.62
2018-09-28T00:59:08.937Z,6.61
2018-09-28T01:01:37.888Z,6.65
2018-09-28T01:04:07.560Z,6.61
2018-09-28T01:06:36.580Z,6.58
2018-09-28T01:09:09.209Z,6.71
2018-09-28T01:11:38.197Z,6.68
2018-09-28T01:14:07.419Z,6.65
2018-09-28T01:16:36.755Z,6.70
2018-09-28T01:19:06.505Z,6.66
2018-09-28T01:21:35.631Z,6.58
2018-09-28T01:24:04.898Z,6.54
2018-09-28T01:26:34.064Z,6.47
2018-09-28T01:29:03.028Z,6.42
2018-09-28T01:31:32.444Z,6.41
2018-09-28T01:34:01.453Z,6.40
2018-09-28T01:36:30.534Z,6.43
2018-09-28T01:39:00.176Z,6.48
2018-09-28T01:41:29.034Z,6.44
2018-09-28T01:43:58.061Z,6.40
2018-09-28T01:46:27.309Z,6.42
2018-09-28T01:48:56.336Z,6.45
2018-09-28T01:51:25.431Z,6.48
2018-09-28T01:53:54.760Z,6.47
2018-09-28T01:56:23.952Z,6.54
2018-09-28T01:58:52.914Z,6.57
2018-09-28T02:01:22.152Z,6.59
2018-09-28T02:03:51.302Z,6.65
2018-09-28T02:06:20.240Z,6.67
2018-09-28T02:08:49.936Z,6.68
2018-09-28T02:11:18.962Z,6.64
2018-09-28T02:13:47.891Z,6.69
2018-09-28T02:16:16.746Z,6.73
2018-09-28T02:18:45.697Z,6.63
2018-09-28T02:21:14.867Z,6.63
2018-09-28T02:23:44.425Z,6.54
2018-09-28T02:26:13.442Z,6.56
2018-09-28T02:28:42.543Z,6.46
2018-09-28T02:31:11.998Z,6.36
2018-09-28T02:33:41.123Z,6.36
2018-09-28T02:36:10.096Z,6.29
2018-09-28T02:38:39.174Z,6.29
2018-09-28T02:41:08.418Z,6.24
2018-09-28T02:43:37.406Z,6.22
2018-09-28T02:46:06.909Z,6.20
2018-09-28T02:48:35.916Z,6.19
2018-09-28T02:51:05.104Z,6.18
2018-09-28T02:53:34.117Z,6.13
2018-09-28T02:56:03.377Z,6.09
2018-09-28T02:58:32.342Z,6.17
2018-09-28T03:01:01.712Z,6.19
2018-09-28T03:03:30.735Z,6.26
2018-09-28T03:05:59.734Z,6.32
2018-09-28T03:08:29.092Z,6.29
2018-09-28T03:10:58.133Z,6.23
2018-09-28T03:13:27.229Z,6.16
2018-09-28T03:15:56.410Z,6.15
2018-09-28T03:18:25.308Z,6.08
2018-09-28T03:20:54.320Z,5.93
2018-09-28T03:23:23.518Z,5.85
2018-09-28T03:25:52.867Z,5.84
2018-09-28T03:28:21.964Z,5.78
2018-09-28T03:30:51.567Z,5.69
2018-09-28T03:33:20.573Z,5.65
2018-09-28T03:35:49.947Z,5.64
2018-09-28T03:38:19.296Z,5.69
2018-09-28T03:40:48.248Z,5.58
2018-09-28T03:43:17.770Z,5.48
2018-09-28T03:45:46.994Z,5.39
2018-09-28T03:48:16.074Z,5.35
2018-09-28T03:50:45.047Z,5.44
2018-09-28T03:53:14.280Z,5.49
2018-09-28T03:55:43.537Z,5.49
2018-09-28T03:58:13.471Z,5.46
2018-09-28T04:00:42.472Z,5.53
2018-09-28T04:03:11.423Z,5.52
2018-09-28T04:05:40.557Z,5.58
2018-09-28T04:08:10.201Z,5.55
2018-09-28T04:10:39.266Z,5.66
2018-09-28T04:13:08.226Z,5.66
2018-09-28T04:15:37.515Z,5.61
2018-09-28T04:18:06.431Z,5.67
2018-09-28T04:20:35.755Z,5.73
2018-09-28T04:23:05.195Z,5.72
2018-09-28T04:25:34.324Z,5.75
2018-09-28T04:28:03.853Z,5.73
2018-09-28T04:30:33.277Z,5.80
2018-09-28T04:33:02.125Z,5.90
2018-09-28T04:35:31.184Z,6.00
2018-09-28T04:38:00.511Z,6.01
2018-09-28T04:40:29.709Z,5.99
2018-09-28T04:42:58.768Z,5.99
2018-09-28T04:45:28.107Z,6.10
2018-09-28T04:47:57.157Z,6.18
2018-09-28T04:50:26.381Z,6.20
2018-09-28T04:52:55.584Z,6.29
2018-09-28T04:55:24.681Z,6.40
2018-09-28T04:57:57.879Z,6.45
2018-09-28T05:00:27.095Z,6.48
2018-09-28T05:02:56.105Z,6.50
2018-09-28T05:05:25.462Z,6.57
2018-09-28T05:07:54.423Z,6.61
2018-09-28T05:10:23.350Z,6.65
2018-09-28T05:12:52.786Z,6.68
2018-09-28T05:15:21.642Z,6.76
2018-09-28T05:17:50.513Z,6.82
2018-09-28T05:20:19.494Z,6.87
2018-09-28T05:22:48.330Z,6.98
2018-09-28T05:25:17.078Z,7.01
2018-09-28T05:27:46.115Z,7.08
2018-09-28T05:30:14.951Z,7.14
2018-09-28T05:32:43.981Z,7.21
2018-09-28T05:35:12.929Z,7.31
2018-09-28T05:37:43.934Z,7.39
2018-09-28T05:40:12.758Z,7.50
2018-09-28T05:42:41.982Z,7.58
2018-09-28T05:45:11.269Z,7.67
2018-09-28T05:47:41.557Z,7.72
2018-09-28T05:50:10.974Z,7.78
2018-09-28T05:52:40.159Z,7.90
2018-09-28T05:55:09.089Z,8.04
2018-09-28T05:57:38.047Z,8.13
2018-09-28T06:00:12.083Z,8.19
2018-09-28T06:02:46.482Z,8.23
2018-09-28T06:05:20.699Z,8.31
2018-09-28T06:07:49.867Z,8.40
2018-09-28T06:10:18.961Z,8.50
2018-09-28T06:12:47.841Z,8.55
2018-09-28T06:15:17.137Z,8.63
2018-09-28T06:17:46.382Z,8.70
2018-09-28T06:20:15.426Z,8.82
2018-09-28T06:22:45.163Z,8.98
2018-09-28T06:25:14.152Z,9.10
2018-09-28T06:27:43.112Z,9.17
2018-09-28T06:30:12.478Z,9.23
2018-09-28T06:32:41.333Z,9.32
2018-09-28T06:35:10.273Z,9.41
2018-09-28T06:37:39.423Z,9.50
2018-09-28T06:40:08.483Z,9.59
2018-09-28T06:42:37.376Z,9.63
2018-09-28T06:45:06.999Z,9.68
2018-09-28T06:47:35.844Z,9.75
2018-09-28T06:50:04.840Z,9.89
2018-09-28T06:52:34.266Z,9.99
2018-09-28T06:55:03.541Z,10.09
2018-09-28T06:57:32.430Z,10.20
2018-09-28T07:00:01.395Z,10.27
2018-09-28T07:02:30.192Z,10.39
2018-09-28T07:04:59.053Z,10.52
2018-09-28T07:07:28.454Z,10.60
2018-09-28T07:09:57.365Z,10.61
2018-09-28T07:12:26.344Z,10.72
2018-09-28T07:14:56.508Z,10.91
2018-09-28T07:17:25.456Z,10.98
2018-09-28T07:19:54.459Z,11.06
2018-09-28T07:22:23.364Z,11.23
2018-09-28T07:24:52.377Z,11.36
2018-09-28T07:27:21.391Z,11.47
2018-09-28T07:29:50.754Z,11.58
2018-09-28T07:32:19.835Z,11.69
2018-09-28T07:34:54.480Z,11.82
2018-09-28T07:37:23.483Z,11.98
2018-09-28T07:39:52.321Z,12.06
2018-09-28T07:42:21.597Z,12.22
2018-09-28T07:44:50.558Z,12.36
2018-09-28T07:47:19.335Z,12.44
2018-09-28T07:49:49.123Z,12.54
2018-09-28T07:52:18.698Z,12.65
2018-09-28T07:54:47.985Z,12.77
2018-09-28T07:57:17.451Z,12.84
2018-09-28T07:59:46.916Z,13.02
2018-09-28T08:02:15.836Z,13.22
2018-09-28T08:04:45.800Z,13.37
2018-09-28T08:07:15.076Z,13.50
2018-09-28T08:09:44.105Z,13.54
2018-09-28T08:12:13.450Z,13.49
2018-09-28T08:14:42.448Z,13.56
2018-09-28T08:17:11.524Z,13.67
2018-09-28T08:19:40.819Z,13.54
2018-09-28T08:22:09.817Z,13.82
2018-09-28T08:24:38.849Z,14.01
2018-09-28T08:27:08.383Z,14.13
2018-09-28T08:29:37.533Z,14.35
2018-09-28T08:32:06.706Z,14.45
2018-09-28T08:34:36.254Z,14.34
2018-09-28T08:37:05.314Z,14.58
2018-09-28T08:39:34.466Z,14.81
2018-09-28T08:42:03.954Z,14.91
2018-09-28T08:44:32.990Z,14.86
2018-09-28T08:47:02.091Z,15.03
2018-09-28T08:49:31.657Z,15.17
2018-09-28T08:52:00.670Z,15.30
2018-09-28T08:54:29.752Z,15.41
2018-09-28T08:56:59.301Z,15.54
2018-09-28T08:59:28.410Z,15.56
2018-09-28T09:01:57.506Z,15.62
2018-09-28T09:04:27.007Z,15.70
2018-09-28T09:06:56.065Z,15.60
2018-09-28T09:09:25.167Z,15.53
2018-09-28T09:11:54.303Z,15.59
2018-09-28T09:14:23.401Z,15.73
2018-09-28T09:16:52.792Z,15.95
2018-09-28T09:19:22.358Z,16.18
2018-09-28T09:21:51.637Z,16.32
2018-09-28T09:24:20.860Z,16.38
2018-09-28T09:26:50.193Z,16.49
2018-09-28T09:29:19.494Z,16.70
2018-09-28T09:31:48.953Z,16.66
2018-09-28T09:34:18.267Z,16.80
2018-09-28T09:36:47.611Z,16.72
2018-09-28T09:39:16.949Z,16.75
2018-09-28T09:41:46.479Z,16.60
2018-09-28T09:44:15.556Z,16.66
2018-09-28T09:46:45.190Z,16.76
2018-09-28T09:49:14.779Z,16.86
2018-09-28T09:51:43.986Z,16.97
2018-09-28T09:54:13.232Z,17.15
2018-09-28T09:56:42.650Z,17.25
2018-09-28T09:59:11.977Z,17.37
2018-09-28T10:01:46.256Z,17.46
2018-09-28T10:04:15.575Z,17.53
2018-09-28T10:06:44.905Z,17.61
2018-09-28T10:09:15.320Z,17.48
2018-09-28T10:11:44.499Z,17.75
2018-09-28T10:14:13.777Z,17.96
2018-09-28T10:16:42.975Z,18.09
2018-09-28T10:19:12.123Z,18.20
2018-09-28T10:21:41.242Z,18.27
2018-09-28T10:24:10.399Z,18.38
2018-09-28T10:26:39.522Z,18.35
2018-09-28T10:29:08.651Z,18.37
2018-09-28T10:31:38.177Z,18.18
2018-09-28T10:34:07.425Z,17.89
2018-09-28T10:36:36.533Z,17.99
2018-09-28T10:39:07.312Z,18.08
2018-09-28T10:41:36.521Z,18.15
2018-09-28T10:44:05.901Z,18.07
2018-09-28T10:46:35.140Z,18.30
2018-09-28T10:49:04.274Z,18.43
2018-09-28T10:51:33.415Z,18.58
2018-09-28T10:54:02.860Z,18.59
2018-09-28T10:56:31.973Z,18.68
2018-09-28T10:59:01.058Z,18.72
2018-09-28T11:01:30.557Z,18.86
2018-09-28T11:03:59.712Z,18.61
2018-09-28T11:06:28.848Z,18.81
2018-09-28T11:08:58.439Z,18.84
2018-09-28T11:11:27.484Z,18.90
2018-09-28T11:13:56.604Z,18.92
2018-09-28T11:16:25.785Z,18.85
2018-09-28T11:18:54.964Z,18.91
2018-09-28T11:21:24.095Z,18.95
2018-09-28T11:23:53.603Z,19.00
2018-09-28T11:26:22.835Z,19.09
2018-09-28T11:28:51.948Z,19.13
2018-09-28T11:31:21.285Z,19.21
2018-09-28T11:33:50.486Z,19.35
2018-09-28T11:36:19.747Z,19.31
2018-09-28T11:38:48.859Z,19.33
2018-09-28T11:41:17.993Z,19.27
2018-09-28T11:43:47.369Z,19.27
2018-09-28T11:46:16.499Z,19.38
2018-09-28T11:48:45.697Z,19.48
2018-09-28T11:51:14.841Z,19.51
2018-09-28T11:53:44.599Z,19.51
2018-09-28T11:56:13.764Z,19.59
2018-09-28T11:58:42.877Z,19.71
2018-09-28T12:01:12.257Z,19.74
2018-09-28T12:03:41.240Z,19.67
2018-09-28T12:06:10.323Z,19.69
2018-09-28T12:08:39.541Z,19.77
2018-09-28T12:11:08.486Z,19.85
2018-09-28T12:13:37.289Z,19.82
2018-09-28T12:16:06.117Z,19.91
2018-09-28T12:18:35.038Z,19.99
2018-09-28T12:21:03.932Z,19.83
2018-09-28T12:23:33.156Z,19.86
2018-09-28T12:26:02.384Z,19.97
2018-09-28T12:28:31.504Z,20.01
2018-09-28T12:31:00.749Z,20.09
2018-09-28T12:33:29.674Z,20.07
2018-09-28T12:35:58.654Z,19.90
2018-09-28T12:38:27.656Z,19.97
2018-09-28T12:40:56.546Z,19.85
2018-09-28T12:43:25.429Z,20.00
2018-09-28T12:45:54.369Z,20.06
2018-09-28T12:48:23.275Z,20.01
2018-09-28T12:50:51.993Z,20.06
2018-09-28T12:53:20.922Z,20.15
2018-09-28T12:55:50.686Z,20.22
2018-09-28T12:58:19.533Z,20.03
2018-09-28T13:00:48.746Z,20.16
2018-09-28T13:03:17.542Z,20.24
2018-09-28T13:05:46.383Z,20.22
2018-09-28T13:08:15.359Z,20.13
2018-09-28T13:10:44.715Z,20.17
2018-09-28T13:13:13.675Z,20.15
2018-09-28T13:15:42.645Z,20.20
2018-09-28T13:18:11.578Z,20.23
2018-09-28T13:20:40.458Z,20.32
2018-09-28T13:23:09.577Z,20.40
2018-09-28T13:25:38.511Z,20.43
2018-09-28T13:28:07.512Z,20.45
2018-09-28T13:30:36.388Z,20.19
2018-09-28T13:33:05.377Z,20.28
2018-09-28T13:35:34.221Z,20.22
2018-09-28T13:38:03.320Z,20.32
2018-09-28T13:40:32.195Z,20.46
2018-09-28T13:43:01.389Z,20.47
2018-09-28T13:45:30.659Z,20.50
2018-09-28T13:47:59.618Z,20.46
2018-09-28T13:50:28.594Z,20.48
2018-09-28T13:52:58.189Z,20.44
2018-09-28T13:55:27.257Z,20.41
2018-09-28T14:04:40.820Z,20.23
2018-09-28T14:07:09.894Z,20.32
2018-09-28T14:09:38.686Z,20.32
2018-09-28T14:12:08.091Z,20.40
2018-09-28T14:14:37.183Z,20.47
2018-09-28T14:17:06.011Z,20.54
2018-09-28T14:19:34.976Z,20.54
2018-09-28T14:22:03.938Z,20.48
2018-09-28T14:24:32.937Z,20.36
2018-09-28T14:27:02.015Z,20.37
2018-09-28T14:29:30.864Z,20.36
2018-09-28T14:31:59.884Z,20.26
2018-09-28T14:34:29.190Z,20.18
2018-09-28T14:36:58.060Z,20.25
2018-09-28T14:39:26.931Z,20.10
2018-09-28T14:41:56.385Z,20.16
2018-09-28T14:44:25.483Z,20.09
2018-09-28T14:46:54.355Z,20.17
2018-09-28T14:49:23.659Z,20.27
2018-09-28T14:51:52.493Z,20.26
2018-09-28T14:54:21.489Z,20.11
2018-09-28T14:56:50.637Z,20.06
2018-09-28T14:59:19.543Z,20.15
2018-09-28T15:01:48.538Z,20.16
2018-09-28T15:04:17.604Z,20.10
2018-09-28T15:06:46.660Z,20.04
2018-09-28T15:09:15.592Z,20.11
2018-09-28T15:11:44.828Z,20.09
2018-09-28T15:14:13.743Z,20.01
2018-09-28T15:16:42.827Z,19.99
2018-09-28T15:19:11.657Z,20.03
2018-09-28T15:21:40.441Z,20.00
2018-09-28T15:24:09.352Z,19.88
2018-09-28T15:26:38.233Z,19.84
2018-09-28T15:29:07.160Z,19.74
2018-09-28T15:31:36.213Z,19.67
2018-09-28T15:34:05.387Z,19.71
2018-09-28T15:36:38.289Z,19.61
2018-09-28T15:39:10.682Z,19.48
2018-09-28T15:41:39.819Z,19.45
2018-09-28T15:44:09.101Z,19.50
2018-09-28T15:46:38.282Z,19.45
2018-09-28T15:49:07.131Z,19.44
2018-09-28T15:51:36.205Z,19.44
2018-09-28T15:54:05.536Z,19.42
2018-09-28T15:56:34.558Z,19.35
2018-09-28T15:59:03.706Z,19.28
2018-09-28T16:03:02.351Z,19.23
2018-09-28T16:05:31.477Z,19.03
2018-09-28T16:08:00.485Z,18.97
2018-09-28T16:10:29.452Z,18.94
2018-09-28T16:12:58.304Z,18.91
2018-09-28T16:15:27.399Z,18.91
2018-09-28T16:17:56.753Z,18.82
2018-09-28T16:20:25.824Z,18.69
2018-09-28T16:22:54.640Z,18.66
2018-09-28T16:25:23.768Z,18.61
2018-09-28T16:27:52.886Z,18.57
2018-09-28T16:30:21.718Z,18.56
2018-09-28T16:32:50.799Z,18.56
2018-09-28T16:35:19.767Z,18.48
2018-09-28T16:37:48.710Z,18.55
2018-09-28T16:40:18.039Z,18.54
2018-09-28T16:42:47.200Z,18.42
2018-09-28T16:45:16.302Z,18.26
2018-09-28T16:47:45.386Z,18.12
2018-09-28T16:50:14.339Z,18.10
2018-09-28T16:52:43.507Z,18.04
2018-09-28T16:55:12.759Z,17.92
2018-09-28T16:57:42.063Z,17.79
2018-09-28T17:00:11.142Z,17.64
2018-09-28T17:02:40.545Z,17.53
2018-09-28T17:05:09.495Z,17.43
2018-09-28T17:07:38.602Z,17.37
2018-09-28T17:10:07.729Z,17.26
2018-09-28T17:12:36.756Z,17.20
2018-09-28T17:15:06.033Z,17.13
2018-09-28T17:17:35.285Z,17.07
2018-09-28T17:20:04.387Z,17.01
2018-09-28T17:22:33.419Z,16.96
2018-09-28T17:25:02.550Z,16.93
2018-09-28T17:27:31.609Z,16.89
2018-09-28T17:30:00.637Z,16.84
2018-09-28T17:32:29.735Z,16.81
2018-09-28T17:34:58.889Z,16.78
2018-09-28T17:37:28.093Z,16.76
2018-09-28T17:39:57.373Z,16.72
2018-09-28T17:42:26.350Z,16.71
2018-09-28T17:44:55.233Z,16.72
2018-09-28T17:47:24.644Z,16.70
2018-09-28T17:49:53.702Z,16.70
2018-09-28T17:52:22.593Z,16.69
2018-09-28T17:54:51.537Z,16.68
2018-09-28T17:57:20.489Z,16.70
2018-09-28T17:59:49.342Z,16.65
2018-09-28T18:02:18.576Z,16.63
2018-09-28T18:04:47.560Z,16.60
2018-09-28T18:07:16.595Z,16.58
2018-09-28T18:09:45.520Z,16.57
2018-09-28T18:12:14.460Z,16.58
2018-09-28T18:14:43.437Z,16.59
2018-09-28T18:17:12.511Z,16.62
2018-09-28T18:19:41.392Z,16.66
2018-09-28T18:22:10.186Z,16.70
2018-09-28T18:24:39.384Z,16.72
2018-09-28T18:27:08.660Z,16.68
2018-09-28T18:29:37.525Z,16.61
2018-09-28T18:32:06.863Z,16.54
2018-09-28T18:34:35.789Z,16.52
2018-09-28T18:37:04.627Z,16.54
2018-09-28T18:39:33.940Z,16.54
2018-09-28T18:42:02.749Z,16.56
2018-09-28T18:44:31.854Z,16.56
2018-09-28T18:47:01.285Z,16.51
2018-09-28T18:49:30.508Z,16.52
2018-09-28T18:51:59.960Z,16.52
2018-09-28T18:54:29.059Z,16.52
2018-09-28T18:56:58.145Z,16.59
2018-09-28T18:59:27.069Z,16.60
2018-09-28T19:01:56.371Z,16.59
2018-09-28T19:04:25.414Z,16.52
2018-09-28T19:06:54.438Z,16.49
2018-09-28T19:09:23.880Z,16.43
2018-09-28T19:11:53.170Z,16.36
2018-09-28T19:14:22.304Z,16.26
2018-09-28T19:16:51.617Z,16.18
2018-09-28T19:19:20.848Z,16.15
2018-09-28T19:21:50.123Z,16.11
2018-09-28T19:24:19.500Z,16.10
2018-09-28T19:26:48.456Z,16.04
2018-09-28T19:29:17.661Z,16.06
2018-09-28T19:31:46.959Z,16.07
2018-09-28T19:34:16.148Z,15.98
2018-09-28T19:36:45.390Z,15.95
2018-09-28T19:39:14.885Z,15.92
2018-09-28T19:41:44.089Z,15.89
2018-09-28T19:44:13.044Z,15.91
2018-09-28T19:46:42.479Z,15.91
2018-09-28T19:49:11.563Z,15.85
2018-09-28T19:51:40.561Z,15.81
2018-09-28T19:54:10.092Z,15.79
2018-09-28T19:56:39.252Z,15.77
2018-09-28T19:59:08.397Z,15.73
2018-09-28T20:01:37.787Z,15.66
2018-09-28T20:04:06.881Z,15.59
2018-09-28T20:06:35.945Z,15.54
2018-09-28T20:09:07.527Z,15.48
2018-09-28T20:11:36.813Z,15.41
2018-09-28T20:14:05.726Z,15.35
2018-09-28T20:16:34.851Z,15.27
2018-09-28T20:19:04.056Z,15.20
2018-09-28T20:21:33.250Z,15.19
2018-09-28T20:24:02.849Z,15.22
2018-09-28T20:26:32.275Z,15.18
2018-09-28T20:29:01.452Z,15.25
2018-09-28T20:31:30.725Z,15.29
2018-09-28T20:34:00.257Z,15.33
2018-09-28T20:36:29.562Z,15.32
2018-09-28T20:38:58.923Z,15.25
2018-09-28T20:41:28.758Z,15.26
2018-09-28T20:43:57.849Z,15.24
2018-09-28T20:46:27.862Z,15.24
2018-09-28T20:48:57.313Z,15.17
2018-09-28T20:51:26.827Z,15.18
2018-09-28T20:53:56.160Z,15.18
2018-09-28T20:56:25.371Z,15.13
2018-09-28T20:58:54.765Z,15.05
2018-09-28T21:01:23.962Z,15.02
2018-09-28T21:03:53.989Z,14.93
2018-09-28T21:06:23.283Z,14.86
2018-09-28T21:08:52.558Z,14.78
2018-09-28T21:11:21.823Z,14.69
2018-09-28T21:13:51.137Z,14.65
2018-09-28T21:16:20.308Z,14.55
2018-09-28T21:18:49.757Z,14.47
2018-09-28T21:21:18.827Z,14.38
2018-09-28T21:23:47.840Z,14.29
2018-09-28T21:26:17.418Z,14.27
2018-09-28T21:28:46.799Z,14.16
2018-09-28T21:31:16.064Z,14.09
2018-09-28T21:33:45.647Z,14.22
2018-09-28T21:36:15.061Z,14.11
2018-09-28T21:38:44.242Z,14.02
2018-09-28T21:41:13.645Z,13.97
2018-09-28T21:43:42.694Z,13.90
2018-09-28T21:46:12.117Z,13.85
2018-09-28T21:48:41.658Z,13.81
2018-09-28T21:51:11.008Z,13.77
2018-09-28T21:53:40.288Z,13.75
2018-09-28T21:56:10.024Z,13.78
2018-09-28T21:58:39.392Z,13.84
2018-09-28T22:01:08.346Z,13.88
2018-09-28T22:03:37.398Z,13.93
2018-09-28T22:06:06.799Z,14.04
2018-09-28T22:08:36.004Z,14.09
2018-09-28T22:11:05.005Z,14.06
2018-09-28T22:13:34.352Z,14.04
2018-09-28T22:16:03.718Z,14.01
2018-09-28T22:18:34.831Z,14.04
2018-09-28T22:21:04.097Z,14.15
2018-09-28T22:23:33.236Z,14.21
2018-09-28T22:26:02.879Z,14.26
2018-09-28T22:28:31.989Z,14.33
2018-09-28T22:31:01.105Z,14.33
2018-09-28T22:33:30.577Z,14.32
2018-09-28T22:35:59.519Z,14.29
2018-09-28T22:38:29.081Z,14.26
2018-09-28T22:40:58.676Z,14.23
2018-09-28T22:43:27.576Z,14.24
2018-09-28T22:45:56.801Z,14.24
2018-09-28T22:48:26.063Z,14.25
2018-09-28T22:50:55.222Z,14.25
2018-09-28T22:53:24.287Z,14.22
2018-09-28T22:55:53.740Z,14.16
2018-09-28T22:58:22.968Z,14.11
2018-09-28T23:00:52.368Z,14.02
2018-09-28T23:03:21.627Z,13.94
2018-09-28T23:05:51.175Z,13.87
2018-09-28T23:15:06.230Z,13.64
2018-09-28T23:17:35.358Z,13.56
2018-09-28T23:20:04.737Z,13.48
2018-09-28T23:22:34.579Z,13.49
2018-09-28T23:25:04.665Z,13.37
2018-09-28T23:27:33.981Z,13.28
2018-09-28T23:30:03.292Z,13.21
2018-09-28T23:32:32.965Z,13.09
2018-09-28T23:35:01.994Z,12.99
2018-09-28T23:37:31.559Z,12.91
2018-09-28T23:40:00.708Z,12.83
2018-09-28T23:42:29.869Z,12.75
2018-09-28T23:44:59.517Z,12.67
2018-09-28T23:47:28.702Z,12.62
2018-09-28T23:49:57.793Z,12.61
2018-09-28T23:52:27.533Z,12.58
2018-09-28T23:54:56.693Z,12.55
2018-09-28T23:57:26.019Z,12.51
2018-09-28T23:59:55.724Z,12.41
